CFESG EIWT-EIKY

Flight info

Callsign CFESG
Flight time N/A
Altitude 14000
Route DCT
Aircraft B60T/L-SDFGRY/C

Departure

Time N/A
Airport EIWT

Arrival

Time 2026-04-30 12:04
Airport Kerry Airport (EIKY)
Time Latitude Longitude Altitude Speed Heading
2026-04-30 11:55 52.21671 -9.70519 5582 ft 205 kts 236°
2026-04-30 11:55 52.20998 -9.72569 5419 ft 205 kts 236°
2026-04-30 11:55 52.20295 -9.74703 5267 ft 205 kts 236°
2026-04-30 11:56 52.19618 -9.76755 5130 ft 204 kts 236°
2026-04-30 11:56 52.19004 -9.78646 4965 ft 173 kts 235°
2026-04-30 11:56 52.18461 -9.80310 4722 ft 162 kts 234°
2026-04-30 11:56 52.17911 -9.81880 4472 ft 156 kts 226°
2026-04-30 11:57 52.17169 -9.83042 4227 ft 147 kts 205°
2026-04-30 11:57 52.16256 -9.83680 3985 ft 140 kts 187°
2026-04-30 11:57 52.15307 -9.83791 3745 ft 135 kts 170°
2026-04-30 11:57 52.14415 -9.83404 3518 ft 132 kts 156°
2026-04-30 11:58 52.13556 -9.82893 3297 ft 131 kts 159°
2026-04-30 11:58 52.12770 -9.82187 3068 ft 130 kts 136°
2026-04-30 11:58 52.12353 -9.80894 2897 ft 132 kts 105°
2026-04-30 11:58 52.12454 -9.79408 2786 ft 136 kts 77°
2026-04-30 11:59 52.12788 -9.77967 2649 ft 136 kts 80°
2026-04-30 11:59 52.13057 -9.76496 2506 ft 135 kts 81°
2026-04-30 11:59 52.13348 -9.75040 2366 ft 135 kts 78°
2026-04-30 11:59 52.13649 -9.73617 2190 ft 135 kts 77°
2026-04-30 12:00 52.13954 -9.72167 2020 ft 135 kts 78°
2026-04-30 12:00 52.14245 -9.70747 1995 ft 129 kts 76°
2026-04-30 12:00 52.14535 -9.69374 1981 ft 128 kts 76°
2026-04-30 12:00 52.14821 -9.67989 1986 ft 129 kts 77°
2026-04-30 12:01 52.15109 -9.66596 1976 ft 131 kts 78°
2026-04-30 12:01 52.15403 -9.65177 1776 ft 130 kts 76°
2026-04-30 12:01 52.15700 -9.63802 1568 ft 127 kts 76°
2026-04-30 12:01 52.15982 -9.62443 1383 ft 126 kts 75°
2026-04-30 12:02 52.16265 -9.61088 1185 ft 127 kts 76°
2026-04-30 12:02 52.16549 -9.59723 990 ft 128 kts 75°
2026-04-30 12:02 52.16830 -9.58406 773 ft 115 kts 73°
2026-04-30 12:02 52.17074 -9.57237 616 ft 105 kts 71°
2026-04-30 12:03 52.17316 -9.56127 441 ft 105 kts 72°
2026-04-30 12:03 52.17765 -9.53942 125 ft 88 kts 74°
2026-04-30 12:03 52.17950 -9.53058 88 ft 73 kts 73°
2026-04-30 12:04 52.18052 -9.52555 84 ft 16 kts 73°
2026-04-30 12:04 52.18067 -9.52503 85 ft 7 kts 320°
2026-04-30 12:04 52.18034 -9.52664 88 ft 25 kts 250°
2026-04-30 12:04 52.17957 -9.53019 87 ft 39 kts 251°
2026-04-30 12:05 52.17869 -9.53438 86 ft 28 kts 250°
2026-04-30 12:05 52.17884 -9.53561 86 ft 10 kts 346°
2026-04-30 12:05 52.17969 -9.53605 85 ft 10 kts 341°
2026-04-30 12:05 52.18009 -9.53620 85 ft 6 kts 327°
2026-04-30 12:06 52.18059 -9.53680 85 ft 4 kts 319°
2026-04-30 12:06 52.18077 -9.53714 85 ft 4 kts 305°
2026-04-30 12:06 52.18089 -9.53745 85 ft 0 kts 301°
2026-04-30 12:06 52.18096 -9.53760 85 ft 2 kts 338°
2026-04-30 12:07 52.18100 -9.53761 85 ft 2 kts 358°
2026-04-30 12:07 52.18103 -9.53739 85 ft 0 kts 132°
2026-04-30 12:07 52.18092 -9.53731 88 ft 2 kts 198°
2026-04-30 12:07 52.18091 -9.53732 88 ft 0 kts 193°